sensor_id;sensor_type;location;lat;lon;timestamp;pressure;altitude;pressure_sealevel;temperature;humidity
56330;BME280;42236;48.058;10.632;2023-04-08T00:01:20;94824.09;;;5.66;87.71
56330;BME280;42236;48.058;10.632;2023-04-08T00:04:06;94822.50;;;5.65;88.18
56330;BME280;42236;48.058;10.632;2023-04-08T00:06:53;94826.28;;;5.64;87.74
56330;BME280;42236;48.058;10.632;2023-04-08T00:09:39;94820.94;;;5.64;88.13
56330;BME280;42236;48.058;10.632;2023-04-08T00:12:25;94827.06;;;5.64;89.18
56330;BME280;42236;48.058;10.632;2023-04-08T00:15:10;94820.31;;;5.67;87.95
56330;BME280;42236;48.058;10.632;2023-04-08T00:17:56;94823.91;;;5.62;88.18
56330;BME280;42236;48.058;10.632;2023-04-08T00:20:43;94826.78;;;5.66;88.60
56330;BME280;42236;48.058;10.632;2023-04-08T00:23:28;94821.59;;;5.69;88.35
56330;BME280;42236;48.058;10.632;2023-04-08T00:26:14;94824.09;;;5.66;88.74
56330;BME280;42236;48.058;10.632;2023-04-08T00:29:00;94814.81;;;5.63;88.84
56330;BME280;42236;48.058;10.632;2023-04-08T00:31:45;94817.94;;;5.65;88.83
56330;BME280;42236;48.058;10.632;2023-04-08T00:34:32;94822.72;;;5.68;88.07
56330;BME280;42236;48.058;10.632;2023-04-08T00:37:17;94821.91;;;5.68;88.21
56330;BME280;42236;48.058;10.632;2023-04-08T00:40:04;94825.56;;;5.72;88.08
56330;BME280;42236;48.058;10.632;2023-04-08T00:42:49;94822.09;;;5.71;87.33
56330;BME280;42236;48.058;10.632;2023-04-08T00:45:35;94816.56;;;5.68;87.23
56330;BME280;42236;48.058;10.632;2023-04-08T00:48:21;94816.38;;;5.64;87.64
56330;BME280;42236;48.058;10.632;2023-04-08T00:51:07;94825.31;;;5.60;87.32
56330;BME280;42236;48.058;10.632;2023-04-08T00:53:53;94823.25;;;5.56;87.92
56330;BME280;42236;48.058;10.632;2023-04-08T00:56:39;94822.38;;;5.47;87.56
56330;BME280;42236;48.058;10.632;2023-04-08T00:59:25;94823.78;;;5.45;87.58
56330;BME280;42236;48.058;10.632;2023-04-08T01:02:14;94823.50;;;5.46;87.30
56330;BME280;42236;48.058;10.632;2023-04-08T01:05:08;94832.22;;;5.38;87.88
56330;BME280;42236;48.058;10.632;2023-04-08T01:07:58;94819.16;;;5.37;87.88
56330;BME280;42236;48.058;10.632;2023-04-08T01:10:50;94819.94;;;5.37;87.73
56330;BME280;42236;48.058;10.632;2023-04-08T01:13:39;94823.25;;;5.34;88.41
56330;BME280;42236;48.058;10.632;2023-04-08T01:16:25;94820.84;;;5.32;88.40
56330;BME280;42236;48.058;10.632;2023-04-08T01:19:20;94827.19;;;5.37;88.13
56330;BME280;42236;48.058;10.632;2023-04-08T01:22:18;94826.38;;;5.36;88.02
56330;BME280;42236;48.058;10.632;2023-04-08T01:25:13;94829.06;;;5.36;87.69
56330;BME280;42236;48.058;10.632;2023-04-08T01:28:05;94828.75;;;5.38;87.54
56330;BME280;42236;48.058;10.632;2023-04-08T01:30:54;94825.78;;;5.39;88.10
56330;BME280;42236;48.058;10.632;2023-04-08T01:33:41;94823.59;;;5.41;87.72
56330;BME280;42236;48.058;10.632;2023-04-08T01:36:29;94823.59;;;5.41;87.46
56330;BME280;42236;48.058;10.632;2023-04-08T01:39:17;94823.78;;;5.45;87.51
56330;BME280;42236;48.058;10.632;2023-04-08T01:42:06;94816.53;;;5.45;88.00
56330;BME280;42236;48.058;10.632;2023-04-08T01:44:55;94821.09;;;5.45;87.99
56330;BME280;42236;48.058;10.632;2023-04-08T01:47:44;94821.41;;;5.43;87.92
56330;BME280;42236;48.058;10.632;2023-04-08T01:50:32;94823.91;;;5.40;88.52
56330;BME280;42236;48.058;10.632;2023-04-08T01:53:18;94819.03;;;5.42;88.75
56330;BME280;42236;48.058;10.632;2023-04-08T01:56:06;94813.88;;;5.45;88.98
56330;BME280;42236;48.058;10.632;2023-04-08T01:58:54;94820.81;;;5.46;88.86
56330;BME280;42236;48.058;10.632;2023-04-08T02:01:43;94819.72;;;5.47;88.16
56330;BME280;42236;48.058;10.632;2023-04-08T02:04:29;94818.19;;;5.55;88.16
56330;BME280;42236;48.058;10.632;2023-04-08T02:07:15;94820.75;;;5.60;88.25
56330;BME280;42236;48.058;10.632;2023-04-08T02:10:02;94813.41;;;5.66;87.72
56330;BME280;42236;48.058;10.632;2023-04-08T02:12:48;94818.78;;;5.74;87.40
56330;BME280;42236;48.058;10.632;2023-04-08T02:15:37;94816.91;;;5.75;87.18
56330;BME280;42236;48.058;10.632;2023-04-08T02:18:25;94816.31;;;5.78;87.11
56330;BME280;42236;48.058;10.632;2023-04-08T02:21:15;94820.06;;;5.77;87.00
56330;BME280;42236;48.058;10.632;2023-04-08T02:24:04;94827.28;;;5.68;87.21
56330;BME280;42236;48.058;10.632;2023-04-08T02:26:51;94825.19;;;5.65;87.41
56330;BME280;42236;48.058;10.632;2023-04-08T02:29:38;94828.78;;;5.60;87.82
56330;BME280;42236;48.058;10.632;2023-04-08T02:32:25;94821.22;;;5.62;87.92
56330;BME280;42236;48.058;10.632;2023-04-08T02:35:11;94826.72;;;5.57;87.61
56330;BME280;42236;48.058;10.632;2023-04-08T02:37:57;94823.25;;;5.56;87.86
56330;BME280;42236;48.058;10.632;2023-04-08T02:40:43;94819.09;;;5.50;88.05
56330;BME280;42236;48.058;10.632;2023-04-08T02:43:28;94816.88;;;5.44;88.81
56330;BME280;42236;48.058;10.632;2023-04-08T02:46:16;94822.00;;;5.40;88.75
56330;BME280;42236;48.058;10.632;2023-04-08T02:49:02;94820.91;;;5.41;89.32
56330;BME280;42236;48.058;10.632;2023-04-08T02:51:48;94818.84;;;5.38;88.92
56330;BME280;42236;48.058;10.632;2023-04-08T02:54:33;94816.66;;;5.40;89.17
56330;BME280;42236;48.058;10.632;2023-04-08T02:57:20;94822.69;;;5.46;88.87
56330;BME280;42236;48.058;10.632;2023-04-08T03:00:06;94820.19;;;5.49;89.14
56330;BME280;42236;48.058;10.632;2023-04-08T03:02:52;94825.25;;;5.51;88.91
56330;BME280;42236;48.058;10.632;2023-04-08T03:05:38;94825.25;;;5.51;89.29
56330;BME280;42236;48.058;10.632;2023-04-08T03:08:24;94827.31;;;5.54;88.94
56330;BME280;42236;48.058;10.632;2023-04-08T03:11:10;94832.84;;;5.57;88.70
56330;BME280;42236;48.058;10.632;2023-04-08T03:13:55;94832.25;;;5.61;88.83
56330;BME280;42236;48.058;10.632;2023-04-08T03:16:41;94828.28;;;5.58;88.90
56330;BME280;42236;48.058;10.632;2023-04-08T03:19:27;94830.50;;;5.56;89.31
56330;BME280;42236;48.058;10.632;2023-04-08T03:22:12;94825.31;;;5.60;88.62
56330;BME280;42236;48.058;10.632;2023-04-08T03:24:58;94833.22;;;5.65;88.54
56330;BME280;42236;48.058;10.632;2023-04-08T03:27:44;94836.09;;;5.68;88.44
56330;BME280;42236;48.058;10.632;2023-04-08T03:30:30;94834.97;;;5.69;87.50
56330;BME280;42236;48.058;10.632;2023-04-08T03:33:16;94832.63;;;5.68;87.69
56330;BME280;42236;48.058;10.632;2023-04-08T03:36:01;94837.28;;;5.62;87.93
56330;BME280;42236;48.058;10.632;2023-04-08T03:38:47;94840.75;;;5.63;88.08
56330;BME280;42236;48.058;10.632;2023-04-08T03:41:33;94839.06;;;5.67;87.94
56330;BME280;42236;48.058;10.632;2023-04-08T03:44:18;94836.09;;;5.68;88.37
56330;BME280;42236;48.058;10.632;2023-04-08T03:47:04;94838.94;;;5.72;87.90
56330;BME280;42236;48.058;10.632;2023-04-08T03:49:52;94847.88;;;5.67;87.83
56330;BME280;42236;48.058;10.632;2023-04-08T03:52:37;94845.31;;;5.62;87.73
56330;BME280;42236;48.058;10.632;2023-04-08T03:55:23;94841.78;;;5.53;87.95
56330;BME280;42236;48.058;10.632;2023-04-08T03:58:09;94841.59;;;5.49;88.24
56330;BME280;42236;48.058;10.632;2023-04-08T04:00:54;94838.44;;;5.47;88.81
56330;BME280;42236;48.058;10.632;2023-04-08T04:03:40;94847.94;;;5.53;88.68
56330;BME280;42236;48.058;10.632;2023-04-08T04:06:26;94851.56;;;5.57;88.67
56330;BME280;42236;48.058;10.632;2023-04-08T04:09:12;94849.59;;;5.63;88.19
56330;BME280;42236;48.058;10.632;2023-04-08T04:11:59;94845.50;;;5.66;88.69
56330;BME280;42236;48.058;10.632;2023-04-08T04:14:45;94845.50;;;5.66;88.89
56330;BME280;42236;48.058;10.632;2023-04-08T04:17:31;94848.69;;;5.68;88.32
56330;BME280;42236;48.058;10.632;2023-04-08T04:20:17;94853.41;;;5.71;88.60
56330;BME280;42236;48.058;10.632;2023-04-08T04:23:02;94855.78;;;5.72;88.51
56330;BME280;42236;48.058;10.632;2023-04-08T04:25:48;94857.38;;;5.73;88.42
56330;BME280;42236;48.058;10.632;2023-04-08T04:28:34;94858.28;;;5.69;87.75
56330;BME280;42236;48.058;10.632;2023-04-08T04:31:22;94853.06;;;5.64;88.34
56330;BME280;42236;48.058;10.632;2023-04-08T04:34:10;94855.72;;;5.64;88.34
56330;BME280;42236;48.058;10.632;2023-04-08T04:36:56;94856.81;;;5.63;88.04
56330;BME280;42236;48.058;10.632;2023-04-08T04:39:41;94857.63;;;5.63;88.16
56330;BME280;42236;48.058;10.632;2023-04-08T04:42:27;94856.50;;;5.64;88.32
56330;BME280;42236;48.058;10.632;2023-04-08T04:45:13;94862.97;;;5.63;88.44
56330;BME280;42236;48.058;10.632;2023-04-08T04:47:58;94862.38;;;5.66;87.99
56330;BME280;42236;48.058;10.632;2023-04-08T04:50:53;94862.38;;;5.66;88.28
56330;BME280;42236;48.058;10.632;2023-04-08T04:53:39;94865.31;;;5.65;88.03
56330;BME280;42236;48.058;10.632;2023-04-08T04:56:24;94871.78;;;5.64;88.46
56330;BME280;42236;48.058;10.632;2023-04-08T04:59:14;94869.41;;;5.62;88.53
56330;BME280;42236;48.058;10.632;2023-04-08T05:02:00;94870.19;;;5.63;88.48
56330;BME280;42236;48.058;10.632;2023-04-08T05:04:45;94868.13;;;5.60;88.51
56330;BME280;42236;48.058;10.632;2023-04-08T05:07:34;94882.00;;;5.62;88.75
56330;BME280;42236;48.058;10.632;2023-04-08T05:10:20;94876.16;;;5.60;88.87
56330;BME280;42236;48.058;10.632;2023-04-08T05:13:06;94876.16;;;5.60;88.78
56330;BME280;42236;48.058;10.632;2023-04-08T05:15:52;94872.69;;;5.59;89.14
56330;BME280;42236;48.058;10.632;2023-04-08T05:18:37;94876.66;;;5.62;88.67
56330;BME280;42236;48.058;10.632;2023-04-08T05:21:23;94872.88;;;5.63;88.22
56330;BME280;42236;48.058;10.632;2023-04-08T05:24:09;94869.72;;;5.61;88.83
56330;BME280;42236;48.058;10.632;2023-04-08T05:26:54;94873.47;;;5.60;88.65
56330;BME280;42236;48.058;10.632;2023-04-08T05:29:42;94875.06;;;5.61;88.69
56330;BME280;42236;48.058;10.632;2023-04-08T05:32:28;94892.09;;;5.65;88.36
56330;BME280;42236;48.058;10.632;2023-04-08T05:35:14;94886.75;;;5.65;88.53
56330;BME280;42236;48.058;10.632;2023-04-08T05:38:00;94886.16;;;5.68;88.26
56330;BME280;42236;48.058;10.632;2023-04-08T05:40:45;94889.91;;;5.67;88.25
56330;BME280;42236;48.058;10.632;2023-04-08T05:43:32;94887.84;;;5.64;88.21
56330;BME280;42236;48.058;10.632;2023-04-08T05:46:17;94890.53;;;5.64;88.57
56330;BME280;42236;48.058;10.632;2023-04-08T05:49:03;94890.53;;;5.64;88.56
56330;BME280;42236;48.058;10.632;2023-04-08T05:51:49;94892.09;;;5.65;88.73
56330;BME280;42236;48.058;10.632;2023-04-08T05:54:34;94893.69;;;5.66;88.37
56330;BME280;42236;48.058;10.632;2023-04-08T05:57:20;94894.97;;;5.68;88.35
56330;BME280;42236;48.058;10.632;2023-04-08T06:00:08;94898.94;;;5.71;88.56
56330;BME280;42236;48.058;10.632;2023-04-08T06:02:53;94893.25;;;5.72;88.29
56330;BME280;42236;48.058;10.632;2023-04-08T06:05:39;94891.38;;;5.73;88.51
56330;BME280;42236;48.058;10.632;2023-04-08T06:08:25;94899.41;;;5.73;88.60
56330;BME280;42236;48.058;10.632;2023-04-08T06:11:11;94902.09;;;5.73;88.39
56330;BME280;42236;48.058;10.632;2023-04-08T06:13:57;94894.06;;;5.73;88.31
56330;BME280;42236;48.058;10.632;2023-04-08T06:16:43;94903.00;;;5.68;88.76
56330;BME280;42236;48.058;10.632;2023-04-08T06:19:28;94908.34;;;5.68;88.36
56330;BME280;42236;48.058;10.632;2023-04-08T06:22:14;94909.31;;;5.72;88.57
56330;BME280;42236;48.058;10.632;2023-04-08T06:25:00;94905.72;;;5.77;88.50
56330;BME280;42236;48.058;10.632;2023-04-08T06:27:45;94914.25;;;5.79;88.25
56330;BME280;42236;48.058;10.632;2023-04-08T06:30:32;94911.91;;;5.77;87.82
56330;BME280;42236;48.058;10.632;2023-04-08T06:33:18;94915.66;;;5.76;88.08
56330;BME280;42236;48.058;10.632;2023-04-08T06:36:05;94915.84;;;5.80;87.57
56330;BME280;42236;48.058;10.632;2023-04-08T06:38:51;94917.13;;;5.83;88.01
56330;BME280;42236;48.058;10.632;2023-04-08T06:41:37;94924.84;;;5.84;87.62
56330;BME280;42236;48.058;10.632;2023-04-08T06:44:23;94916.81;;;5.84;87.48
56330;BME280;42236;48.058;10.632;2023-04-08T06:47:08;94929.69;;;5.82;87.81
56330;BME280;42236;48.058;10.632;2023-04-08T06:49:54;94923.56;;;5.82;87.74
56330;BME280;42236;48.058;10.632;2023-04-08T06:52:40;94921.50;;;5.78;87.64
56330;BME280;42236;48.058;10.632;2023-04-08T06:55:26;94925.47;;;5.81;88.04
56330;BME280;42236;48.058;10.632;2023-04-08T06:58:12;94926.72;;;5.84;87.72
56330;BME280;42236;48.058;10.632;2023-04-08T07:00:58;94926.94;;;5.87;87.92
56330;BME280;42236;48.058;10.632;2023-04-08T07:03:44;94915.00;;;5.93;88.20
56330;BME280;42236;48.058;10.632;2023-04-08T07:06:29;94918.97;;;5.96;87.46
56330;BME280;42236;48.058;10.632;2023-04-08T07:09:15;94928.16;;;6.04;87.94
56330;BME280;42236;48.058;10.632;2023-04-08T07:12:02;94919.19;;;6.00;87.94
56330;BME280;42236;48.058;10.632;2023-04-08T07:14:48;94927.91;;;5.91;88.38
56330;BME280;42236;48.058;10.632;2023-04-08T07:17:34;94924.13;;;5.92;88.43
56330;BME280;42236;48.058;10.632;2023-04-08T07:20:20;94921.59;;;5.87;88.51
56330;BME280;42236;48.058;10.632;2023-04-08T07:23:06;94928.00;;;5.86;88.66
56330;BME280;42236;48.058;10.632;2023-04-08T07:25:52;94934.09;;;5.78;88.80
56330;BME280;42236;48.058;10.632;2023-04-08T07:28:38;94942.72;;;5.75;89.21
56330;BME280;42236;48.058;10.632;2023-04-08T07:31:24;94937.97;;;5.72;89.54
56330;BME280;42236;48.058;10.632;2023-04-08T07:34:10;94939.88;;;5.71;89.91
56330;BME280;42236;48.058;10.632;2023-04-08T07:36:56;94945.50;;;5.70;90.34
56330;BME280;42236;48.058;10.632;2023-04-08T07:39:42;94940.66;;;5.72;90.82
56330;BME280;42236;48.058;10.632;2023-04-08T07:42:27;94942.72;;;5.75;91.17
56330;BME280;42236;48.058;10.632;2023-04-08T07:45:13;94938.28;;;5.70;92.16
56330;BME280;42236;48.058;10.632;2023-04-08T07:47:59;94938.88;;;5.67;91.61
56330;BME280;42236;48.058;10.632;2023-04-08T07:50:45;94938.09;;;5.67;92.01
56330;BME280;42236;48.058;10.632;2023-04-08T07:53:32;94943.81;;;5.74;91.82
56330;BME280;42236;48.058;10.632;2023-04-08T07:56:18;94942.25;;;5.73;91.33
56330;BME280;42236;48.058;10.632;2023-04-08T07:59:07;94941.88;;;5.66;92.10
56330;BME280;42236;48.058;10.632;2023-04-08T08:01:53;94943.25;;;5.63;92.70
56330;BME280;42236;48.058;10.632;2023-04-08T08:04:39;94945.63;;;5.65;92.98
56330;BME280;42236;48.058;10.632;2023-04-08T08:07:24;94950.75;;;5.75;92.76
56330;BME280;42236;48.058;10.632;2023-04-08T08:10:10;94950.75;;;5.75;93.25
56330;BME280;42236;48.058;10.632;2023-04-08T08:12:56;94953.06;;;5.68;94.43
56330;BME280;42236;48.058;10.632;2023-04-08T08:15:41;94955.94;;;5.57;94.60
56330;BME280;42236;48.058;10.632;2023-04-08T08:18:27;94959.22;;;5.54;94.30
56330;BME280;42236;48.058;10.632;2023-04-08T08:21:13;94963.78;;;5.54;95.21
56330;BME280;42236;48.058;10.632;2023-04-08T08:23:59;94961.78;;;5.60;95.70
56330;BME280;42236;48.058;10.632;2023-04-08T08:26:44;94960.16;;;5.72;94.79
56330;BME280;42236;48.058;10.632;2023-04-08T08:29:31;94965.22;;;5.88;95.15
56330;BME280;42236;48.058;10.632;2023-04-08T08:32:17;94963.72;;;5.95;94.48
56330;BME280;42236;48.058;10.632;2023-04-08T08:35:03;94973.69;;;6.04;94.47
56330;BME280;42236;48.058;10.632;2023-04-08T08:37:49;94976.47;;;6.12;94.61
56330;BME280;42236;48.058;10.632;2023-04-08T08:40:35;94973.66;;;6.17;93.58
56330;BME280;42236;48.058;10.632;2023-04-08T08:43:21;94976.59;;;6.30;94.32
56330;BME280;42236;48.058;10.632;2023-04-08T08:46:09;94980.41;;;6.37;93.40
56330;BME280;42236;48.058;10.632;2023-04-08T08:48:56;94976.94;;;6.37;94.02
56330;BME280;42236;48.058;10.632;2023-04-08T08:51:44;94978.53;;;6.38;94.06
56330;BME280;42236;48.058;10.632;2023-04-08T08:54:30;94982.50;;;6.40;93.73
56330;BME280;42236;48.058;10.632;2023-04-08T08:57:18;94994.31;;;6.17;90.46
56330;BME280;42236;48.058;10.632;2023-04-08T09:00:04;94986.63;;;5.88;89.64
56330;BME280;42236;48.058;10.632;2023-04-08T09:02:50;94990.00;;;5.80;89.29
56330;BME280;42236;48.058;10.632;2023-04-08T09:05:52;94996.34;;;5.70;88.29
56330;BME280;42236;48.058;10.632;2023-04-08T09:08:38;94999.75;;;5.62;88.17
56330;BME280;42236;48.058;10.632;2023-04-08T09:11:24;94996.41;;;5.56;85.66
56330;BME280;42236;48.058;10.632;2023-04-08T09:14:21;95000.16;;;5.55;84.79
56330;BME280;42236;48.058;10.632;2023-04-08T09:17:07;94994.91;;;5.64;85.23
56330;BME280;42236;48.058;10.632;2023-04-08T09:20:12;95005.00;;;5.67;85.44
56330;BME280;42236;48.058;10.632;2023-04-08T09:23:00;94993.09;;;5.73;85.75
56330;BME280;42236;48.058;10.632;2023-04-08T09:25:46;95005.59;;;5.77;85.76
56330;BME280;42236;48.058;10.632;2023-04-08T09:28:32;95004.50;;;5.78;86.64
56330;BME280;42236;48.058;10.632;2023-04-08T09:34:11;95002.09;;;5.77;86.34
56330;BME280;42236;48.058;10.632;2023-04-08T09:36:57;95009.06;;;5.78;86.04
56330;BME280;42236;48.058;10.632;2023-04-08T09:39:42;95006.25;;;5.83;86.65
56330;BME280;42236;48.058;10.632;2023-04-08T09:42:29;95004.38;;;5.84;84.66
56330;BME280;42236;48.058;10.632;2023-04-08T09:45:16;95009.63;;;5.89;84.88
56330;BME280;42236;48.058;10.632;2023-04-08T09:48:11;95013.19;;;5.84;84.15
56330;BME280;42236;48.058;10.632;2023-04-08T09:50:58;95014.19;;;5.88;85.05
56330;BME280;42236;48.058;10.632;2023-04-08T09:53:50;95014.06;;;5.93;85.03
56330;BME280;42236;48.058;10.632;2023-04-08T09:56:43;95011.91;;;5.95;84.41
56330;BME280;42236;48.058;10.632;2023-04-08T09:59:33;95014.00;;;5.98;84.38
56330;BME280;42236;48.058;10.632;2023-04-08T10:02:28;95019.53;;;6.02;84.63
56330;BME280;42236;48.058;10.632;2023-04-08T10:05:18;95021.09;;;5.89;82.87
56330;BME280;42236;48.058;10.632;2023-04-08T10:08:05;95022.31;;;5.83;83.57
56330;BME280;42236;48.058;10.632;2023-04-08T10:10:53;95024.28;;;5.91;84.23
56330;BME280;42236;48.058;10.632;2023-04-08T10:13:39;95029.56;;;5.96;85.19
56330;BME280;42236;48.058;10.632;2023-04-08T10:16:25;95027.38;;;5.98;84.75
56330;BME280;42236;48.058;10.632;2023-04-08T10:19:37;95026.41;;;5.81;83.56
56330;BME280;42236;48.058;10.632;2023-04-08T10:30:56;95026.41;;;5.67;85.48
56330;BME280;42236;48.058;10.632;2023-04-08T10:33:42;95025.34;;;5.54;83.67
56330;BME280;42236;48.058;10.632;2023-04-08T10:36:28;95030.19;;;5.52;85.47
56330;BME280;42236;48.058;10.632;2023-04-08T10:39:15;95027.31;;;5.48;85.46
56330;BME280;42236;48.058;10.632;2023-04-08T10:42:01;95028.91;;;5.49;86.18
56330;BME280;42236;48.058;10.632;2023-04-08T10:44:47;95027.13;;;5.59;86.76
56330;BME280;42236;48.058;10.632;2023-04-08T10:47:32;95027.91;;;5.59;85.73
56330;BME280;42236;48.058;10.632;2023-04-08T10:50:19;95022.34;;;5.55;85.64
56330;BME280;42236;48.058;10.632;2023-04-08T10:53:09;95018.09;;;5.54;85.28
56330;BME280;42236;48.058;10.632;2023-04-08T10:56:12;95024.56;;;5.53;85.99
56330;BME280;42236;48.058;10.632;2023-04-08T10:58:59;95029.69;;;5.64;85.61
56330;BME280;42236;48.058;10.632;2023-04-08T11:01:45;95030.31;;;5.61;84.83
56330;BME280;42236;48.058;10.632;2023-04-08T11:04:31;95027.50;;;5.66;85.43
56330;BME280;42236;48.058;10.632;2023-04-08T11:07:19;95022.34;;;5.69;85.26
56330;BME280;42236;48.058;10.632;2023-04-08T11:10:05;95026.91;;;5.83;85.53
56330;BME280;42236;48.058;10.632;2023-04-08T11:12:53;95021.53;;;5.96;85.03
56330;BME280;42236;48.058;10.632;2023-04-08T11:15:38;95023.72;;;5.94;83.92
56330;BME280;42236;48.058;10.632;2023-04-08T11:18:26;95025.00;;;5.97;84.51
56330;BME280;42236;48.058;10.632;2023-04-08T11:21:13;95023.38;;;6.10;84.68
56330;BME280;42236;48.058;10.632;2023-04-08T11:23:58;95024.25;;;6.19;84.51
56330;BME280;42236;48.058;10.632;2023-04-08T11:26:44;95027.19;;;6.31;84.49
56330;BME280;42236;48.058;10.632;2023-04-08T11:29:30;95023.03;;;6.25;83.77
56330;BME280;42236;48.058;10.632;2023-04-08T11:32:15;95028.59;;;6.29;84.30
56330;BME280;42236;48.058;10.632;2023-04-08T11:35:05;95020.06;;;6.27;83.13
56330;BME280;42236;48.058;10.632;2023-04-08T11:37:51;95018.66;;;6.29;84.13
56330;BME280;42236;48.058;10.632;2023-04-08T11:40:37;95021.25;;;6.20;83.31
56330;BME280;42236;48.058;10.632;2023-04-08T11:43:23;95019.47;;;6.16;83.57
56330;BME280;42236;48.058;10.632;2023-04-08T11:46:09;95020.94;;;6.36;85.09
56330;BME280;42236;48.058;10.632;2023-04-08T11:49:06;95015.56;;;6.58;83.92
56330;BME280;42236;48.058;10.632;2023-04-08T11:51:57;95017.06;;;6.73;84.89
56330;BME280;42236;48.058;10.632;2023-04-08T11:54:43;95011.22;;;6.94;84.20
56330;BME280;42236;48.058;10.632;2023-04-08T11:57:29;95012.97;;;6.98;83.41
56330;BME280;42236;48.058;10.632;2023-04-08T12:00:15;95012.97;;;6.98;83.59
56330;BME280;42236;48.058;10.632;2023-04-08T12:03:00;95014.09;;;7.06;83.68
56330;BME280;42236;48.058;10.632;2023-04-08T12:05:46;95003.44;;;7.23;83.64
56330;BME280;42236;48.058;10.632;2023-04-08T12:08:32;95010.59;;;7.37;83.14
56330;BME280;42236;48.058;10.632;2023-04-08T12:11:18;95014.25;;;7.41;83.02
56330;BME280;42236;48.058;10.632;2023-04-08T12:14:04;95014.69;;;7.34;82.70
56330;BME280;42236;48.058;10.632;2023-04-08T12:16:50;95012.78;;;7.26;82.59
56330;BME280;42236;48.058;10.632;2023-04-08T12:19:36;95019.91;;;7.31;84.46
56330;BME280;42236;48.058;10.632;2023-04-08T12:22:22;95015.84;;;7.42;83.50
56330;BME280;42236;48.058;10.632;2023-04-08T12:25:08;95014.09;;;7.46;83.32
56330;BME280;42236;48.058;10.632;2023-04-08T12:27:53;95019.81;;;7.53;83.28
56330;BME280;42236;48.058;10.632;2023-04-08T12:30:39;95019.06;;;7.61;83.37
56330;BME280;42236;48.058;10.632;2023-04-08T12:33:25;95015.41;;;7.57;82.76
56330;BME280;42236;48.058;10.632;2023-04-08T12:36:11;95020.72;;;7.48;83.42
56330;BME280;42236;48.058;10.632;2023-04-08T12:38:56;95015.41;;;7.57;83.09
56330;BME280;42236;48.058;10.632;2023-04-08T12:41:42;95018.38;;;7.47;82.81
56330;BME280;42236;48.058;10.632;2023-04-08T12:44:27;95022.00;;;7.42;83.87
56330;BME280;42236;48.058;10.632;2023-04-08T12:47:13;95028.44;;;7.33;83.23
56330;BME280;42236;48.058;10.632;2023-04-08T12:49:59;95012.94;;;7.30;83.37
56330;BME280;42236;48.058;10.632;2023-04-08T12:52:44;95018.22;;;7.12;82.32
56330;BME280;42236;48.058;10.632;2023-04-08T12:55:30;95013.13;;;7.02;82.89
56330;BME280;42236;48.058;10.632;2023-04-08T12:58:16;95021.31;;;6.97;83.26
56330;BME280;42236;48.058;10.632;2023-04-08T13:01:01;95013.91;;;7.02;83.05
56330;BME280;42236;48.058;10.632;2023-04-08T13:03:47;95022.66;;;7.08;83.00
56330;BME280;42236;48.058;10.632;2023-04-08T13:06:33;95016.81;;;7.15;83.76
56330;BME280;42236;48.058;10.632;2023-04-08T13:09:18;95010.84;;;7.18;82.69
56330;BME280;42236;48.058;10.632;2023-04-08T13:12:04;95016.22;;;7.18;82.88
56330;BME280;42236;48.058;10.632;2023-04-08T13:14:50;95012.56;;;7.14;82.95
56330;BME280;42236;48.058;10.632;2023-04-08T13:17:36;95010.19;;;7.12;83.97
56330;BME280;42236;48.058;10.632;2023-04-08T13:20:21;95012.38;;;7.10;83.65
56330;BME280;42236;48.058;10.632;2023-04-08T13:23:10;95010.19;;;7.12;83.30
56330;BME280;42236;48.058;10.632;2023-04-08T13:25:56;95013.00;;;7.07;82.94
56330;BME280;42236;48.058;10.632;2023-04-08T13:28:41;95007.75;;;7.02;83.03
56330;BME280;42236;48.058;10.632;2023-04-08T13:31:27;95015.31;;;7.00;82.90
56330;BME280;42236;48.058;10.632;2023-04-08T13:34:13;95014.69;;;7.03;82.52
56330;BME280;42236;48.058;10.632;2023-04-08T13:36:58;95013.75;;;6.99;82.66
56330;BME280;42236;48.058;10.632;2023-04-08T13:39:44;95013.41;;;6.92;83.01
56330;BME280;42236;48.058;10.632;2023-04-08T13:42:30;95013.22;;;6.88;83.00
56330;BME280;42236;48.058;10.632;2023-04-08T13:45:16;95009.25;;;6.86;83.22
56330;BME280;42236;48.058;10.632;2023-04-08T13:48:01;95014.63;;;6.86;83.63
56330;BME280;42236;48.058;10.632;2023-04-08T13:50:47;95014.44;;;6.82;83.51
56330;BME280;42236;48.058;10.632;2023-04-08T13:53:34;95016.94;;;6.78;83.85
56330;BME280;42236;48.058;10.632;2023-04-08T13:56:20;95011.09;;;6.76;83.75
56330;BME280;42236;48.058;10.632;2023-04-08T13:59:05;95010.28;;;6.67;84.33
56330;BME280;42236;48.058;10.632;2023-04-08T14:01:51;95013.38;;;6.60;84.91
56330;BME280;42236;48.058;10.632;2023-04-08T14:04:38;95012.72;;;6.55;84.01
56330;BME280;42236;48.058;10.632;2023-04-08T14:07:24;95018.78;;;6.47;84.36
56330;BME280;42236;48.058;10.632;2023-04-08T14:10:09;95021.09;;;6.39;84.80
56330;BME280;42236;48.058;10.632;2023-04-08T14:12:55;95022.22;;;6.38;85.59
56330;BME280;42236;48.058;10.632;2023-04-08T14:15:41;95020.38;;;6.48;85.54
56330;BME280;42236;48.058;10.632;2023-04-08T14:18:27;95027.31;;;6.49;85.44
56330;BME280;42236;48.058;10.632;2023-04-08T14:21:13;95029.50;;;6.47;85.07
56330;BME280;42236;48.058;10.632;2023-04-08T14:24:00;95037.66;;;6.41;85.06
56330;BME280;42236;48.058;10.632;2023-04-08T14:26:45;95036.69;;;6.37;84.89
56330;BME280;42236;48.058;10.632;2023-04-08T14:29:31;95038.88;;;6.35;84.95
56330;BME280;42236;48.058;10.632;2023-04-08T14:32:17;95042.66;;;6.34;84.71
56330;BME280;42236;48.058;10.632;2023-04-08T14:35:02;95049.81;;;6.25;84.94
56330;BME280;42236;48.058;10.632;2023-04-08T14:37:48;95045.59;;;6.10;85.21
56330;BME280;42236;48.058;10.632;2023-04-08T14:40:34;95047.91;;;6.03;85.17
56330;BME280;42236;48.058;10.632;2023-04-08T14:43:20;95050.28;;;6.05;85.84
56330;BME280;42236;48.058;10.632;2023-04-08T14:46:06;95050.78;;;6.07;85.26
56330;BME280;42236;48.058;10.632;2023-04-08T14:48:51;95046.72;;;5.95;85.53
56330;BME280;42236;48.058;10.632;2023-04-08T14:51:37;95048.38;;;5.91;85.90
56330;BME280;42236;48.058;10.632;2023-04-08T14:54:23;95052.88;;;5.96;85.71